createdAt,value
2022-08-26T00:01:24.272Z,15.68
2022-08-26T00:03:56.571Z,13.20
2022-08-26T00:06:23.572Z,8.50
2022-08-26T00:08:50.147Z,7.22
2022-08-26T00:11:26.549Z,17.08
2022-08-26T00:13:54.718Z,10.55
2022-08-26T00:16:22.616Z,6.82
2022-08-26T00:18:50.034Z,11.63
2022-08-26T00:21:16.649Z,7.65
2022-08-26T00:23:43.324Z,10.63
2022-08-26T00:26:11.065Z,10.63
2022-08-26T00:28:38.438Z,7.05
2022-08-26T00:31:07.615Z,9.80
2022-08-26T00:33:38.518Z,11.90
2022-08-26T00:36:05.573Z,8.93
2022-08-26T00:38:32.689Z,15.23
2022-08-26T00:40:59.352Z,7.22
2022-08-26T00:43:27.329Z,8.07
2022-08-26T00:46:13.251Z,9.13
2022-08-26T00:48:42.651Z,8.50
2022-08-26T00:51:22.997Z,8.00
2022-08-26T00:53:57.706Z,8.23
2022-08-26T00:56:34.534Z,12.20
2022-08-26T00:59:06.835Z,16.50
2022-08-26T01:01:34.198Z,7.25
2022-08-26T01:04:01.175Z,8.23
2022-08-26T01:06:28.573Z,5.85
2022-08-26T01:08:56.118Z,6.57
2022-08-26T01:11:24.119Z,7.43
2022-08-26T01:13:57.478Z,7.35
2022-08-26T01:16:25.750Z,9.95
2022-08-26T01:18:59.800Z,9.68
2022-08-26T01:21:36.364Z,6.47
2022-08-26T01:24:08.849Z,8.15
2022-08-26T01:29:12.775Z,6.10
2022-08-26T01:31:44.168Z,6.45
2022-08-26T01:34:19.711Z,6.53
2022-08-26T01:36:51.290Z,8.50
2022-08-26T01:39:18.590Z,9.98
2022-08-26T01:41:46.252Z,7.35
2022-08-26T01:44:20.002Z,8.75
2022-08-26T01:46:50.735Z,7.43
2022-08-26T01:49:18.849Z,11.90
2022-08-26T01:51:48.036Z,12.15
2022-08-26T01:54:16.072Z,5.55
2022-08-26T01:56:43.004Z,3.92
2022-08-26T01:59:15.073Z,9.75
2022-08-26T02:01:41.816Z,10.02
2022-08-26T02:04:15.242Z,7.45
2022-08-26T02:06:42.801Z,9.55
2022-08-26T02:09:10.329Z,6.43
2022-08-26T02:11:37.007Z,6.43
2022-08-26T02:14:09.946Z,7.82
2022-08-26T02:16:42.423Z,10.75
2022-08-26T02:19:17.134Z,10.60
2022-08-26T02:21:45.954Z,14.90
2022-08-26T02:24:27.293Z,6.82
2022-08-26T02:26:56.187Z,6.63
2022-08-26T02:29:37.460Z,12.65
2022-08-26T02:32:08.046Z,7.75
2022-08-26T02:34:35.092Z,10.60
2022-08-26T02:37:05.725Z,9.65
2022-08-26T02:39:33.052Z,12.00
2022-08-26T02:42:00.011Z,5.78
2022-08-26T02:44:27.548Z,9.45
2022-08-26T02:46:54.817Z,5.82
2022-08-26T02:49:23.755Z,11.68
2022-08-26T02:51:50.948Z,5.43
2022-08-26T02:54:21.331Z,10.30
2022-08-26T02:56:48.788Z,10.10
2022-08-26T02:59:15.497Z,13.77
2022-08-26T03:01:42.647Z,7.45
2022-08-26T03:04:11.793Z,6.28
2022-08-26T03:06:39.030Z,11.45
2022-08-26T03:09:07.668Z,7.22
2022-08-26T03:11:34.441Z,10.02
2022-08-26T03:14:03.781Z,6.15
2022-08-26T03:16:34.600Z,6.93
2022-08-26T03:19:02.796Z,6.57
2022-08-26T03:21:30.221Z,12.98
2022-08-26T03:23:58.713Z,14.27
2022-08-26T03:26:26.286Z,9.55
2022-08-26T03:29:11.704Z,10.48
2022-08-26T03:31:38.374Z,6.38
2022-08-26T03:34:05.045Z,9.23
2022-08-26T03:36:32.072Z,8.45
2022-08-26T03:39:01.945Z,5.80
2022-08-26T03:41:29.192Z,12.70
2022-08-26T03:43:59.672Z,17.45
2022-08-26T03:46:28.314Z,10.13
2022-08-26T03:48:55.180Z,7.40
2022-08-26T03:51:21.713Z,6.60
2022-08-26T03:53:48.369Z,15.93
2022-08-26T03:56:15.300Z,5.45
2022-08-26T03:58:42.733Z,11.40
2022-08-26T04:01:10.942Z,5.72
2022-08-26T04:03:56.609Z,7.55
2022-08-26T04:06:30.947Z,13.30
2022-08-26T04:09:00.244Z,12.13
2022-08-26T04:11:34.206Z,7.95
2022-08-26T04:14:03.670Z,8.50
2022-08-26T04:16:30.645Z,7.22
2022-08-26T04:18:58.357Z,7.30
2022-08-26T04:21:25.720Z,6.50
2022-08-26T04:23:54.360Z,8.35
2022-08-26T04:26:22.555Z,13.48
2022-08-26T04:28:53.198Z,5.72
2022-08-26T04:31:20.036Z,6.20
2022-08-26T04:33:50.826Z,6.65
2022-08-26T04:36:20.105Z,8.63
2022-08-26T04:38:47.348Z,10.45
2022-08-26T04:41:15.336Z,6.85
2022-08-26T04:43:43.871Z,7.60
2022-08-26T04:46:13.083Z,5.28
2022-08-26T04:48:41.358Z,12.20
2022-08-26T04:51:09.604Z,4.75
2022-08-26T04:53:37.367Z,11.65
2022-08-26T04:56:04.781Z,9.90
2022-08-26T04:58:31.948Z,9.60
2022-08-26T05:00:58.676Z,6.43
2022-08-26T05:03:30.246Z,13.25
2022-08-26T05:05:57.966Z,6.07
2022-08-26T05:08:25.237Z,5.38
2022-08-26T05:10:56.377Z,7.53
2022-08-26T05:13:27.385Z,12.88
2022-08-26T05:15:55.693Z,4.57
2022-08-26T05:18:30.360Z,10.63
2022-08-26T05:20:57.506Z,10.82
2022-08-26T05:23:24.527Z,8.13
2022-08-26T05:25:58.379Z,7.28
2022-08-26T05:28:28.353Z,6.20
2022-08-26T05:30:55.948Z,9.15
2022-08-26T05:33:22.997Z,13.40
2022-08-26T05:35:49.831Z,12.68
2022-08-26T05:38:19.643Z,6.90
2022-08-26T05:40:52.930Z,9.57
2022-08-26T05:43:20.580Z,12.13
2022-08-26T05:45:49.498Z,8.23
2022-08-26T05:50:47.714Z,10.48
2022-08-26T05:53:17.584Z,8.35
2022-08-26T05:55:47.968Z,11.10
2022-08-26T05:58:15.350Z,10.07
2022-08-26T06:00:44.658Z,7.00
2022-08-26T06:03:11.552Z,7.32
2022-08-26T06:05:39.906Z,9.52
2022-08-26T06:08:19.322Z,12.07
2022-08-26T06:10:52.721Z,12.35
2022-08-26T06:13:23.844Z,9.82
2022-08-26T06:15:51.790Z,14.90
2022-08-26T06:18:22.004Z,14.05
2022-08-26T06:20:57.383Z,14.15
2022-08-26T06:23:44.881Z,8.85
2022-08-26T06:26:12.340Z,8.65
2022-08-26T06:28:39.110Z,10.93
2022-08-26T06:31:06.137Z,15.75
2022-08-26T06:33:33.557Z,12.25
2022-08-26T06:36:01.237Z,11.45
2022-08-26T06:38:28.550Z,8.30
2022-08-26T06:40:55.155Z,8.95
2022-08-26T06:43:25.284Z,11.45
2022-08-26T06:45:59.536Z,12.32
2022-08-26T06:48:26.122Z,18.27
2022-08-26T06:51:02.407Z,9.35
2022-08-26T06:53:28.966Z,16.83
2022-08-26T06:55:55.671Z,18.92
2022-08-26T06:58:23.332Z,9.93
2022-08-26T07:00:51.137Z,14.23
2022-08-26T07:03:18.348Z,12.10
2022-08-26T07:05:44.958Z,12.38
2022-08-26T07:08:12.065Z,17.30
2022-08-26T07:10:38.851Z,22.55
2022-08-26T07:13:06.020Z,25.60
2022-08-26T07:18:03.118Z,14.07
2022-08-26T07:20:29.748Z,13.15
2022-08-26T07:22:58.880Z,16.05
2022-08-26T07:27:54.183Z,32.92
2022-08-26T07:32:48.341Z,33.05
2022-08-26T07:35:15.092Z,25.30
2022-08-26T07:37:42.839Z,18.13
2022-08-26T07:40:10.287Z,24.27
2022-08-26T07:42:36.870Z,26.08
2022-08-26T07:45:04.189Z,23.00
2022-08-26T07:47:31.063Z,26.98
2022-08-26T07:49:58.484Z,16.42
2022-08-26T07:52:28.199Z,18.50
2022-08-26T07:55:00.651Z,15.57
2022-08-26T07:57:29.006Z,19.75
2022-08-26T07:59:56.661Z,24.60
2022-08-26T08:02:24.878Z,15.38
2022-08-26T08:04:52.348Z,20.03
2022-08-26T08:07:19.269Z,37.97
2022-08-26T08:09:49.440Z,40.83
2022-08-26T08:12:16.923Z,36.13
2022-08-26T08:14:46.773Z,34.65
2022-08-26T08:17:15.788Z,20.52
2022-08-26T08:19:42.682Z,14.30
2022-08-26T08:22:17.798Z,22.00
2022-08-26T08:24:49.951Z,21.48
2022-08-26T08:27:23.506Z,21.58
2022-08-26T08:29:50.940Z,23.42
2022-08-26T08:32:18.760Z,12.02
2022-08-26T08:34:45.564Z,20.55
2022-08-26T08:37:12.713Z,21.20
2022-08-26T08:39:39.406Z,22.98
2022-08-26T08:42:19.829Z,24.85
2022-08-26T08:44:52.783Z,22.25
2022-08-26T08:47:34.225Z,26.88
2022-08-26T08:50:17.727Z,18.08
2022-08-26T08:52:49.157Z,15.45
2022-08-26T08:55:18.272Z,16.73
2022-08-26T08:58:02.761Z,14.80
2022-08-26T09:00:39.954Z,9.55
2022-08-26T09:03:36.151Z,14.68
2022-08-26T09:06:04.012Z,7.88
2022-08-26T09:08:35.823Z,11.37
2022-08-26T09:11:04.426Z,17.77
2022-08-26T09:13:31.788Z,8.60
2022-08-26T09:15:58.494Z,6.13
2022-08-26T09:18:34.112Z,14.93
2022-08-26T09:21:03.937Z,18.35
2022-08-26T09:23:32.263Z,8.48
2022-08-26T09:26:02.516Z,12.32
2022-08-26T09:28:31.036Z,5.10
2022-08-26T09:31:20.108Z,14.30
2022-08-26T09:33:47.813Z,11.85
2022-08-26T09:36:41.511Z,10.13
2022-08-26T09:39:37.795Z,11.18
2022-08-26T09:42:11.762Z,12.75
2022-08-26T09:45:06.531Z,10.50
2022-08-26T09:47:48.112Z,12.13
2022-08-26T09:50:29.400Z,12.45
2022-08-26T09:53:09.990Z,14.63
2022-08-26T09:55:42.112Z,15.45
2022-08-26T09:58:34.093Z,5.97
2022-08-26T10:01:04.079Z,11.75
2022-08-26T10:03:33.348Z,18.08
2022-08-26T10:06:00.083Z,12.15
2022-08-26T10:08:41.337Z,11.90
2022-08-26T10:11:30.937Z,9.73
2022-08-26T10:14:21.006Z,11.75
2022-08-26T10:17:03.349Z,12.05
2022-08-26T10:19:56.568Z,11.45
2022-08-26T10:22:38.773Z,10.82
2022-08-26T10:25:09.951Z,15.48
2022-08-26T10:27:51.242Z,12.30
2022-08-26T10:30:22.966Z,11.70
2022-08-26T10:32:56.014Z,8.27
2022-08-26T10:35:23.642Z,11.57
2022-08-26T10:38:00.484Z,14.63
2022-08-26T10:40:51.159Z,9.25
2022-08-26T10:43:23.588Z,4.72
2022-08-26T10:45:57.279Z,10.00
2022-08-26T10:48:35.613Z,11.07
2022-08-26T10:53:46.733Z,10.23
2022-08-26T10:56:30.415Z,5.35
2022-08-26T10:59:48.038Z,7.47
2022-08-26T11:05:05.503Z,11.48
2022-08-26T11:07:32.077Z,4.90
2022-08-26T11:10:22.909Z,10.00
2022-08-26T11:12:58.441Z,14.77
2022-08-26T11:15:25.091Z,8.10
2022-08-26T11:18:02.407Z,6.07
2022-08-26T11:20:45.951Z,10.13
2022-08-26T11:23:13.628Z,16.10
2022-08-26T11:25:59.027Z,6.20
2022-08-26T11:28:34.654Z,12.15
2022-08-26T11:31:02.042Z,7.00
2022-08-26T11:33:51.682Z,10.40
2022-08-26T11:36:38.656Z,9.23
2022-08-26T11:39:28.909Z,13.02
2022-08-26T11:42:00.088Z,9.95
2022-08-26T11:44:37.315Z,10.77
2022-08-26T11:47:05.537Z,13.63
2022-08-26T11:49:38.453Z,7.45
2022-08-26T11:52:22.113Z,9.43
2022-08-26T11:55:09.795Z,5.78
2022-08-26T11:57:44.872Z,7.80
2022-08-26T12:00:21.112Z,7.35
2022-08-26T12:02:50.260Z,9.37
2022-08-26T12:05:29.439Z,11.15
2022-08-26T12:08:02.447Z,5.57
2022-08-26T12:10:33.835Z,10.02
2022-08-26T12:13:02.522Z,7.47
2022-08-26T12:18:00.463Z,7.68
2022-08-26T12:20:54.337Z,7.78
2022-08-26T12:23:46.790Z,6.80
2022-08-26T12:26:28.986Z,14.07
2022-08-26T12:29:26.774Z,9.68
2022-08-26T12:32:09.121Z,4.60
2022-08-26T12:34:36.274Z,10.73
2022-08-26T12:37:03.439Z,7.50
2022-08-26T12:39:36.726Z,10.18
2022-08-26T12:42:20.974Z,8.85
2022-08-26T12:44:54.010Z,13.45
2022-08-26T12:47:44.361Z,7.53
2022-08-26T12:50:18.182Z,4.72
2022-08-26T12:52:54.018Z,5.80
2022-08-26T12:55:35.457Z,11.57
2022-08-26T12:58:26.240Z,11.68
2022-08-26T13:00:54.389Z,6.95
2022-08-26T13:03:43.442Z,11.10
2022-08-26T13:06:29.935Z,9.68
2022-08-26T13:09:00.517Z,10.48
2022-08-26T13:11:31.609Z,12.48
2022-08-26T13:14:07.169Z,14.88
2022-08-26T13:16:35.012Z,9.60
2022-08-26T13:19:05.250Z,5.83
2022-08-26T13:21:37.442Z,7.03
2022-08-26T13:24:14.073Z,13.60
2022-08-26T13:26:43.204Z,22.42
2022-08-26T13:29:10.683Z,6.38
2022-08-26T13:31:39.891Z,7.20
2022-08-26T13:34:08.033Z,19.38
2022-08-26T13:36:35.999Z,17.98
2022-08-26T13:39:03.223Z,10.90
2022-08-26T13:41:29.946Z,10.70
2022-08-26T13:43:57.006Z,12.52
2022-08-26T13:46:27.270Z,5.80
2022-08-26T13:48:54.629Z,10.48
2022-08-26T13:51:22.899Z,11.43
2022-08-26T13:53:50.394Z,10.30
2022-08-26T13:56:18.827Z,6.50
2022-08-26T13:58:46.336Z,8.07
2022-08-26T14:01:14.211Z,10.77
2022-08-26T14:03:41.010Z,7.50
2022-08-26T14:06:07.824Z,10.43
2022-08-26T14:08:35.220Z,14.65
2022-08-26T14:11:01.778Z,7.78
2022-08-26T14:13:28.435Z,5.32
2022-08-26T14:15:56.602Z,7.65
2022-08-26T14:18:29.553Z,8.68
2022-08-26T14:20:56.172Z,6.20
2022-08-26T14:23:23.046Z,7.35
2022-08-26T14:25:49.769Z,7.40
2022-08-26T14:28:16.452Z,7.88
2022-08-26T14:30:53.475Z,9.05
2022-08-26T14:33:24.639Z,4.85
2022-08-26T14:35:51.714Z,5.43
2022-08-26T14:38:18.504Z,5.93
2022-08-26T14:40:45.454Z,7.07
2022-08-26T14:43:15.373Z,5.68
2022-08-26T14:45:45.214Z,9.30
2022-08-26T14:48:11.923Z,5.15
2022-08-26T14:50:38.767Z,5.47
2022-08-26T14:53:23.927Z,9.70
2022-08-26T14:55:50.797Z,10.55
2022-08-26T14:58:17.371Z,5.65
2022-08-26T15:00:43.964Z,7.32
2022-08-26T15:03:10.768Z,8.73
2022-08-26T15:05:38.011Z,5.97
2022-08-26T15:08:10.366Z,6.80
2022-08-26T15:10:37.537Z,12.07
2022-08-26T15:13:04.512Z,8.88
2022-08-26T15:15:31.189Z,8.40
2022-08-26T15:17:57.810Z,6.07
2022-08-26T15:20:24.573Z,7.53
2022-08-26T15:22:51.167Z,9.82
2022-08-26T15:25:18.173Z,10.57
2022-08-26T15:27:44.977Z,5.95
2022-08-26T15:30:12.847Z,7.07
2022-08-26T15:32:39.392Z,6.33
2022-08-26T15:35:09.088Z,8.18
2022-08-26T15:37:36.306Z,14.45
2022-08-26T15:40:04.819Z,8.57
2022-08-26T15:42:31.766Z,4.20
2022-08-26T15:44:58.361Z,8.27
2022-08-26T15:47:25.156Z,4.78
2022-08-26T15:49:51.746Z,14.75
2022-08-26T15:52:18.486Z,11.73
2022-08-26T15:54:45.128Z,5.65
2022-08-26T15:57:13.625Z,9.95
2022-08-26T15:59:41.906Z,8.55
2022-08-26T16:02:09.579Z,12.13
2022-08-26T16:04:36.309Z,4.97
2022-08-26T16:07:04.266Z,10.88
2022-08-26T16:09:30.859Z,8.68
2022-08-26T16:11:58.112Z,7.53
2022-08-26T16:14:25.616Z,6.25
2022-08-26T16:16:52.396Z,8.68
2022-08-26T16:19:19.373Z,7.25
2022-08-26T16:21:46.144Z,6.03
2022-08-26T16:24:13.249Z,9.43
2022-08-26T16:26:42.199Z,7.30
2022-08-26T16:29:12.323Z,8.18
2022-08-26T16:31:39.708Z,12.48
2022-08-26T16:34:07.625Z,7.43
2022-08-26T16:36:35.757Z,6.27
2022-08-26T16:39:03.516Z,10.45
2022-08-26T16:41:31.717Z,17.03
2022-08-26T16:43:59.149Z,6.43
2022-08-26T16:46:26.620Z,8.45
2022-08-26T16:48:55.357Z,8.75
2022-08-26T16:53:51.610Z,8.20
2022-08-26T16:56:21.676Z,9.40
2022-08-26T16:58:48.435Z,7.80
2022-08-26T17:01:16.542Z,20.77
2022-08-26T17:03:43.280Z,17.35
2022-08-26T17:06:10.440Z,5.28
2022-08-26T17:08:38.874Z,9.23
2022-08-26T17:11:05.989Z,9.70
2022-08-26T17:13:35.753Z,8.10
2022-08-26T17:16:05.057Z,6.88
2022-08-26T17:18:33.440Z,13.40
2022-08-26T17:21:05.813Z,10.85
2022-08-26T17:23:32.480Z,12.02
2022-08-26T17:25:59.396Z,12.60
2022-08-26T17:28:25.979Z,8.32
2022-08-26T17:30:52.620Z,11.35
2022-08-26T17:33:22.058Z,8.35
2022-08-26T17:35:51.397Z,7.32
2022-08-26T17:38:17.951Z,10.85
2022-08-26T17:40:44.507Z,11.02
2022-08-26T17:43:12.433Z,6.60
2022-08-26T17:45:40.417Z,7.25
2022-08-26T17:48:07.672Z,5.90
2022-08-26T17:50:34.351Z,9.23
2022-08-26T17:53:00.932Z,8.45
2022-08-26T17:55:27.527Z,10.40
2022-08-26T17:57:54.129Z,7.57
2022-08-26T18:00:26.405Z,10.82
2022-08-26T18:02:54.292Z,10.07
2022-08-26T18:05:22.320Z,6.30
2022-08-26T18:07:48.990Z,10.68
2022-08-26T18:10:18.288Z,6.25
2022-08-26T18:12:45.543Z,8.60
2022-08-26T18:15:13.708Z,9.30
2022-08-26T18:17:40.591Z,6.32
2022-08-26T18:20:13.550Z,7.47
2022-08-26T18:22:40.457Z,8.00
2022-08-26T18:25:08.213Z,8.43
2022-08-26T18:27:36.171Z,6.72
2022-08-26T18:30:06.365Z,4.00
2022-08-26T18:32:32.981Z,6.05
2022-08-26T18:35:01.592Z,8.50
2022-08-26T18:37:31.022Z,5.68
2022-08-26T18:39:59.559Z,4.95
2022-08-26T18:42:27.215Z,7.65
2022-08-26T18:44:54.030Z,7.97
2022-08-26T18:47:20.873Z,5.30
2022-08-26T18:49:48.600Z,7.45
2022-08-26T18:52:15.289Z,6.95
2022-08-26T18:54:41.962Z,6.82
2022-08-26T18:57:08.534Z,8.27
2022-08-26T18:59:35.146Z,10.02
2022-08-26T19:02:01.793Z,10.68
2022-08-26T19:04:28.461Z,9.25
2022-08-26T19:06:55.226Z,6.57
2022-08-26T19:09:21.986Z,9.30
2022-08-26T19:11:50.075Z,7.28
2022-08-26T19:14:17.085Z,10.88
2022-08-26T19:16:46.462Z,9.32
2022-08-26T19:19:14.761Z,7.32
2022-08-26T19:21:41.620Z,5.68
2022-08-26T19:24:15.256Z,8.48
2022-08-26T19:26:46.797Z,6.45
2022-08-26T19:29:13.819Z,5.50
2022-08-26T19:31:41.455Z,7.80
2022-08-26T19:34:10.700Z,6.10
2022-08-26T19:36:37.959Z,8.02
2022-08-26T19:39:08.500Z,9.90
2022-08-26T19:41:38.007Z,10.32
2022-08-26T19:44:34.380Z,8.32
2022-08-26T19:47:05.142Z,12.05
2022-08-26T19:49:32.023Z,4.35
2022-08-26T19:51:58.993Z,8.45
2022-08-26T19:54:26.013Z,9.55
2022-08-26T19:56:52.762Z,8.45
2022-08-26T19:59:19.353Z,13.48
2022-08-26T20:01:46.208Z,13.55
2022-08-26T20:04:27.521Z,7.32
2022-08-26T20:06:57.699Z,12.05
2022-08-26T20:09:31.166Z,7.32
2022-08-26T20:11:57.802Z,6.82
2022-08-26T20:14:26.440Z,6.70
2022-08-26T20:16:53.390Z,6.22
2022-08-26T20:19:38.572Z,9.32
2022-08-26T20:22:05.825Z,9.25
2022-08-26T20:24:33.497Z,8.02
2022-08-26T20:27:03.306Z,8.80
2022-08-26T20:29:32.702Z,8.55
2022-08-26T20:31:59.360Z,11.38
2022-08-26T20:34:26.879Z,6.55
2022-08-26T20:36:53.690Z,9.55
2022-08-26T20:39:21.415Z,10.98
2022-08-26T20:41:48.686Z,9.88
2022-08-26T20:44:16.734Z,7.35
2022-08-26T20:46:44.304Z,15.85
2022-08-26T20:49:11.358Z,15.15
2022-08-26T20:51:38.406Z,6.95
2022-08-26T20:54:05.984Z,9.20
2022-08-26T20:56:32.630Z,6.28
2022-08-26T20:58:59.987Z,5.28
2022-08-26T21:01:33.606Z,6.45
2022-08-26T21:04:02.550Z,9.07
2022-08-26T21:06:29.751Z,11.68
2022-08-26T21:08:57.070Z,9.25
2022-08-26T21:11:25.263Z,7.25
2022-08-26T21:14:16.114Z,5.78
2022-08-26T21:16:40.655Z,8.90
2022-08-26T21:19:10.656Z,6.65
2022-08-26T21:21:37.626Z,13.40
2022-08-26T21:24:04.749Z,7.97
2022-08-26T21:26:31.366Z,9.80
2022-08-26T21:28:57.924Z,6.20
2022-08-26T21:31:25.715Z,12.82
2022-08-26T21:33:52.964Z,7.25
2022-08-26T21:36:19.895Z,12.10
2022-08-26T21:38:46.943Z,8.23
2022-08-26T21:41:18.743Z,9.10
2022-08-26T21:43:46.269Z,6.97
2022-08-26T21:46:15.888Z,9.77
2022-08-26T21:48:48.746Z,6.25
2022-08-26T21:51:19.315Z,15.38
2022-08-26T21:53:46.050Z,7.60
2022-08-26T21:56:15.515Z,6.25
2022-08-26T21:58:42.488Z,6.88
2022-08-26T22:01:16.460Z,12.10
2022-08-26T22:03:46.882Z,13.93
2022-08-26T22:06:14.246Z,9.27
2022-08-26T22:08:40.799Z,8.52
2022-08-26T22:11:07.396Z,9.90
2022-08-26T22:13:37.019Z,10.55
2022-08-26T22:16:04.572Z,6.95
2022-08-26T22:18:31.765Z,11.57
2022-08-26T22:21:01.271Z,22.15
2022-08-26T22:23:28.202Z,8.88
2022-08-26T22:25:55.890Z,19.20
2022-08-26T22:28:23.263Z,8.35
2022-08-26T22:30:50.885Z,11.18
2022-08-26T22:33:18.067Z,10.32
2022-08-26T22:35:47.589Z,10.10
2022-08-26T22:38:14.633Z,6.40
2022-08-26T22:40:50.438Z,12.63
2022-08-26T22:43:18.837Z,12.77
2022-08-26T22:45:48.294Z,9.35
2022-08-26T22:48:17.945Z,6.68
2022-08-26T22:50:46.560Z,10.35
2022-08-26T22:53:14.188Z,7.82
2022-08-26T22:55:40.930Z,6.60
2022-08-26T22:58:08.033Z,9.77
2022-08-26T23:00:34.650Z,10.68
2022-08-26T23:03:02.976Z,7.80
2022-08-26T23:05:29.819Z,9.60
2022-08-26T23:07:56.973Z,9.77
2022-08-26T23:10:24.527Z,12.30
2022-08-26T23:12:52.479Z,13.98
2022-08-26T23:15:20.903Z,9.00
2022-08-26T23:17:48.318Z,8.45
2022-08-26T23:20:26.365Z,8.13
2022-08-26T23:22:53.563Z,7.45
2022-08-26T23:25:20.670Z,8.05
2022-08-26T23:27:47.278Z,9.10
2022-08-26T23:30:17.730Z,8.60
2022-08-26T23:32:44.482Z,8.55
2022-08-26T23:35:12.723Z,9.52
2022-08-26T23:37:44.272Z,16.60
2022-08-26T23:40:16.118Z,9.13
2022-08-26T23:42:44.070Z,9.00
2022-08-26T23:45:13.043Z,11.15
2022-08-26T23:47:41.228Z,15.63
2022-08-26T23:50:09.017Z,7.77
2022-08-26T23:52:54.494Z,8.35
2022-08-26T23:55:21.084Z,7.50
2022-08-26T23:57:47.684Z,8.02
